Time;durP1;ratioP1;P1;durP2;ratioP2;P2;SDS_P1;SDS_P2;PMS_P1;PMS_P2;Temp;Humidity;BMP_temperature;BMP_pressure;BME280_temperature;BME280_humidity;BME280_pressure;Samples;Min_cycle;Max_cycle;Signal;HPM_P1;HPM_P2
2022/01/01 00:02:15;;;;;;;;;55.75;44.50;;;;;13.33;71.39;102441.56;6309654;22;45372;-86
2022/01/01 00:04:42;;;;;;;;;51.25;41.75;;;;;13.28;71.52;102446.88;6310035;22;45250;-85
2022/01/01 00:07:07;;;;;;;;;53.75;44.25;;;;;13.26;71.42;102445.22;6309525;22;45884;-86
2022/01/01 00:09:33;;;;;;;;;53.25;41.25;;;;;13.25;71.25;102448.72;6309408;22;45371;-85
2022/01/01 00:11:58;;;;;;;;;51.00;41.50;;;;;13.21;71.15;102445.25;6309515;22;45155;-86
2022/01/01 00:14:23;;;;;;;;;50.25;39.25;;;;;13.20;71.54;102442.66;6309664;22;45215;-85
2022/01/01 00:16:49;;;;;;;;;50.50;40.00;;;;;13.16;71.60;102445.34;6309524;22;45144;-85
2022/01/01 00:19:14;;;;;;;;;46.50;39.00;;;;;13.14;71.50;102447.13;6309980;22;45963;-85
2022/01/01 00:21:41;;;;;;;;;48.25;40.25;;;;;13.16;71.67;102450.63;6306873;22;45965;-84
2022/01/01 00:24:06;;;;;;;;;47.75;39.75;;;;;13.16;71.96;102449.75;6309623;22;45653;-86
2022/01/01 00:26:32;;;;;;;;;48.50;39.00;;;;;13.18;72.07;102462.94;6309345;22;45190;-86
2022/01/01 00:28:57;;;;;;;;;45.00;38.00;;;;;13.18;72.40;102450.59;6307466;22;45503;-85
2022/01/01 00:31:23;;;;;;;;;48.50;38.75;;;;;13.18;72.41;102447.97;6309624;22;45205;-86
2022/01/01 00:33:48;;;;;;;;;46.50;37.25;;;;;13.20;72.39;102446.16;6309751;22;45484;-85
2022/01/01 00:36:13;;;;;;;;;47.25;39.00;;;;;13.21;72.16;102442.63;6307367;22;45518;-85
2022/01/01 00:38:39;;;;;;;;;45.25;38.50;;;;;13.22;72.47;102444.38;6309364;22;45417;-83
2022/01/01 00:41:04;;;;;;;;;44.25;36.25;;;;;13.24;72.65;102442.56;6309512;22;45275;-85
2022/01/01 00:43:30;;;;;;;;;46.00;37.75;;;;;13.25;72.46;102446.09;6309358;22;45405;-89
2022/01/01 00:45:55;;;;;;;;;48.50;39.25;;;;;13.27;72.53;102447.81;6309722;22;45158;-89
2022/01/01 00:48:21;;;;;;;;;52.50;40.75;;;;;13.30;72.34;102443.38;6307931;22;45673;-89
2022/01/01 00:50:46;;;;;;;;;50.25;38.50;;;;;13.29;72.48;102442.50;6309281;22;45309;-89
2022/01/01 00:53:11;;;;;;;;;49.00;41.50;;;;;13.30;72.27;102449.53;6309645;22;45306;-89
2022/01/01 00:55:37;;;;;;;;;52.75;44.75;;;;;13.33;72.24;102456.53;6307050;22;45369;-90
2022/01/01 00:58:03;;;;;;;;;56.50;44.00;;;;;13.31;72.28;102458.31;6309567;22;45443;-89
2022/01/01 01:00:30;;;;;;;;;53.50;43.50;;;;;13.34;72.67;102458.25;6309559;22;45407;-89
2022/01/01 01:02:55;;;;;;;;;55.75;44.75;;;;;13.36;72.69;102457.31;6307843;22;47530;-89
2022/01/01 01:05:21;;;;;;;;;59.50;46.25;;;;;13.35;72.53;102455.59;6309703;22;45183;-84
2022/01/01 01:07:46;;;;;;;;;57.75;45.00;;;;;13.38;72.55;102454.69;6309750;22;45310;-83
2022/01/01 01:10:13;;;;;;;;;55.00;45.25;;;;;13.36;72.73;102445.88;6309408;22;45150;-83
2022/01/01 01:12:45;;;;;;;;;56.00;45.75;;;;;13.36;72.25;102444.13;6308968;22;45243;-87
2022/01/01 01:15:17;;;;;;;;;54.00;44.25;;;;;13.38;72.31;102446.75;6309346;22;45163;-88
2022/01/01 01:17:45;;;;;;;;;53.25;43.25;;;;;13.38;72.60;102447.59;6307217;22;45415;-87
2022/01/01 01:20:11;;;;;;;;;56.75;46.25;;;;;13.38;72.49;102458.16;6309404;22;45646;-82
2022/01/01 01:22:36;;;;;;;;;50.00;41.75;;;;;13.38;72.15;102455.53;6309235;22;46367;-82
2022/01/01 01:25:01;;;;;;;;;58.25;47.00;;;;;13.41;72.22;102451.97;6309610;22;45143;-82
2022/01/01 01:27:28;;;;;;;;;59.25;46.75;;;;;13.40;72.28;102434.41;6309429;22;45641;-82
2022/01/01 01:29:54;;;;;;;;;56.25;44.75;;;;;13.40;72.11;102444.97;6309548;22;45219;-82
2022/01/01 01:32:20;;;;;;;;;61.00;47.75;;;;;13.40;72.27;102442.31;6309255;22;45322;-82
2022/01/01 01:34:45;;;;;;;;;54.50;44.25;;;;;13.40;72.18;102444.97;6309259;22;45340;-81
2022/01/01 01:37:10;;;;;;;;;62.25;49.00;;;;;13.39;73.03;102441.44;6309668;22;45335;-82
2022/01/01 01:39:36;;;;;;;;;57.75;46.25;;;;;13.42;72.33;102432.59;6309480;22;45352;-89
2022/01/01 01:42:02;;;;;;;;;58.50;49.00;;;;;13.41;72.21;102436.13;6307228;22;47872;-88
2022/01/01 01:44:35;;;;;;;;;62.00;48.00;;;;;13.38;72.21;102431.75;6309446;22;45281;-89
2022/01/01 01:47:03;;;;;;;;;60.25;47.75;;;;;13.39;71.95;102444.06;6309704;22;45233;-86
2022/01/01 01:49:29;;;;;;;;;60.00;49.00;;;;;13.38;72.26;102439.69;6309271;22;45233;-87
2022/01/01 01:51:55;;;;;;;;;63.50;49.75;;;;;13.40;72.23;102442.31;6308869;22;45239;-88
2022/01/01 01:54:21;;;;;;;;;70.50;53.25;;;;;13.42;72.08;102450.19;6309162;22;45233;-86
2022/01/01 01:56:47;;;;;;;;;60.50;48.00;;;;;13.41;71.77;102451.13;6309502;22;45176;-84
2022/01/01 01:59:14;;;;;;;;;59.25;45.75;;;;;13.37;71.77;102448.53;6309226;22;45195;-87
2022/01/01 02:01:39;;;;;;;;;56.00;45.75;;;;;13.36;71.74;102445.88;6309146;22;46228;-85
2022/01/01 02:04:05;;;;;;;;;59.00;46.25;;;;;13.37;71.58;102448.53;6307106;22;45254;-86
2022/01/01 02:06:30;;;;;;;;;54.50;42.00;;;;;13.32;71.56;102444.22;6309104;22;45336;-87
2022/01/01 02:08:56;;;;;;;;;55.50;46.75;;;;;13.30;71.90;102440.72;6309128;22;45369;-89
2022/01/01 02:11:23;;;;;;;;;52.25;42.75;;;;;13.31;71.88;102443.31;6307009;22;46957;-88
2022/01/01 02:18:49;;;;;;;;;54.50;44.00;;;;;13.25;71.57;102430.25;6308688;22;45257;-86
2022/01/01 02:21:16;;;;;;;;;55.00;44.00;;;;;13.23;71.24;102435.56;6321897;22;46290;-86
2022/01/01 02:23:44;;;;;;;;;64.00;49.75;;;;;13.23;71.46;102443.47;6312436;22;45187;-80
2022/01/01 02:26:15;;;;;;;;;59.50;46.50;;;;;13.21;71.24;102439.97;6340392;22;45436;-85
2022/01/01 02:28:47;;;;;;;;;58.00;46.50;;;;;13.16;71.00;102428.66;6339895;22;45135;-88
2022/01/01 02:31:14;;;;;;;;;58.25;46.75;;;;;13.13;70.89;102432.22;6340209;22;45711;-82
2022/01/01 02:33:43;;;;;;;;;58.75;46.00;;;;;13.11;70.86;102425.22;6340992;22;45143;-84
2022/01/01 02:36:08;;;;;;;;;57.25;45.00;;;;;13.05;71.10;102418.25;6341925;22;45128;-84
2022/01/01 02:38:35;;;;;;;;;55.75;46.25;;;;;12.99;70.83;102421.84;6341943;22;45254;-84
2022/01/01 02:41:01;;;;;;;;;55.75;45.50;;;;;12.94;70.88;102419.28;6341822;22;45365;-84
2022/01/01 02:43:26;;;;;;;;;57.75;44.00;;;;;12.93;70.95;102419.31;6341284;22;45377;-83
2022/01/01 02:45:52;;;;;;;;;57.50;46.75;;;;;12.87;70.77;102414.13;6341767;22;45405;-83
2022/01/01 02:48:18;;;;;;;;;55.75;44.75;;;;;12.87;70.89;102416.75;6341978;22;45483;-89
2022/01/01 02:50:43;;;;;;;;;55.00;45.25;;;;;12.82;71.15;102409.81;6341561;22;45543;-89
2022/01/01 02:53:16;;;;;;;;;54.00;43.25;;;;;12.80;70.92;102416.00;6341940;22;45169;-88
2022/01/01 02:55:45;;;;;;;;;51.00;42.25;;;;;12.74;70.82;102405.56;6341959;22;45319;-86
2022/01/01 02:58:12;;;;;;;;;51.25;42.00;;;;;12.71;70.89;102412.63;6341834;22;45400;-87
2022/01/01 03:00:38;;;;;;;;;53.00;39.75;;;;;12.71;70.58;102417.03;6341386;22;46295;-86
2022/01/01 03:03:04;;;;;;;;;50.00;40.50;;;;;12.65;70.95;102425.00;6341531;22;45365;-86
2022/01/01 03:05:31;;;;;;;;;48.50;39.50;;;;;12.63;70.90;102422.41;6341937;22;45166;-87
2022/01/01 03:07:57;;;;;;;;;47.25;39.25;;;;;12.59;70.97;102423.34;6313472;22;47433;-86
2022/01/01 03:10:23;;;;;;;;;37.75;32.25;;;;;12.57;70.80;102426.00;6341838;22;46505;-84
2022/01/01 03:12:48;;;;;;;;;45.50;36.50;;;;;12.55;71.12;102424.28;6341242;22;45735;-84
2022/01/01 03:15:14;;;;;;;;;45.25;36.50;;;;;12.53;71.02;102423.44;6342066;22;45175;-84
2022/01/01 03:17:39;;;;;;;;;44.75;37.25;;;;;12.50;70.83;102424.34;6341672;22;45441;-84
2022/01/01 03:20:05;;;;;;;;;50.25;38.25;;;;;12.48;71.01;102415.59;6341270;22;45334;-85
2022/01/01 03:22:31;;;;;;;;;44.50;36.50;;;;;12.46;71.10;102420.00;6341083;22;45741;-89
2022/01/01 03:24:56;;;;;;;;;39.25;35.00;;;;;12.44;71.08;102422.69;6341976;22;45251;-89
2022/01/01 03:27:22;;;;;;;;;45.00;37.50;;;;;12.42;71.13;102434.16;6341350;22;45279;-88
2022/01/01 03:29:47;;;;;;;;;46.00;37.25;;;;;12.41;71.27;102435.03;6341319;22;45286;-88
2022/01/01 03:32:13;;;;;;;;;46.75;36.50;;;;;12.39;71.43;102429.78;6341587;22;45226;-86
2022/01/01 03:34:38;;;;;;;;;46.50;37.00;;;;;12.38;71.20;102439.44;6341631;22;45229;-86
2022/01/01 03:37:04;;;;;;;;;46.00;36.50;;;;;12.36;71.50;102429.81;6341781;22;45558;-89
2022/01/01 03:39:29;;;;;;;;;45.00;36.25;;;;;12.34;71.32;102429.84;6341517;22;45434;-88
2022/01/01 03:41:54;;;;;;;;;42.50;36.50;;;;;12.34;71.21;102421.06;6312954;22;45235;-88
2022/01/01 03:44:20;;;;;;;;;42.75;36.25;;;;;12.33;71.42;102422.81;6341646;22;45199;-88
2022/01/01 03:46:46;;;;;;;;;43.25;34.75;;;;;12.34;71.50;102419.28;6341563;22;45349;-88
2022/01/01 03:49:11;;;;;;;;;36.50;33.00;;;;;12.33;71.62;102414.91;6341043;22;47410;-88
2022/01/01 03:51:37;;;;;;;;;43.00;35.50;;;;;12.32;71.94;102415.78;6341327;22;45254;-87
2022/01/01 03:54:02;;;;;;;;;38.00;33.00;;;;;12.31;71.37;102408.78;6341499;22;45208;-88
2022/01/01 03:56:27;;;;;;;;;40.50;35.00;;;;;12.32;71.42;102401.75;6341143;22;45364;-85
2022/01/01 03:58:53;;;;;;;;;40.25;32.75;;;;;12.32;71.25;102404.38;6341105;22;45398;-85
2022/01/01 04:01:18;;;;;;;;;41.00;35.50;;;;;12.29;71.27;102410.56;6341351;22;45261;-82
2022/01/01 04:03:43;;;;;;;;;40.50;35.75;;;;;12.29;71.43;102409.69;6341730;22;45384;-82
2022/01/01 04:06:09;;;;;;;;;38.75;32.75;;;;;12.28;71.32;102414.09;6341137;22;45298;-83
2022/01/01 04:08:35;;;;;;;;;43.25;34.50;;;;;12.29;71.58;102426.38;6341720;22;45134;-84
2022/01/01 04:11:00;;;;;;;;;38.25;32.75;;;;;12.26;71.22;102421.16;6341480;22;45175;-85
2022/01/01 04:13:26;;;;;;;;;43.25;34.00;;;;;12.23;71.28;102416.78;6341503;22;45171;-83
2022/01/01 04:15:51;;;;;;;;;39.00;33.75;;;;;12.25;71.33;102419.38;6341244;22;45105;-81
2022/01/01 04:18:26;;;;;;;;;37.25;32.50;;;;;12.24;71.34;102415.91;6341475;22;46417;-84
2022/01/01 04:20:52;;;;;;;;;38.50;31.50;;;;;12.21;71.47;102407.16;6341156;22;45234;-84
2022/01/01 04:23:17;;;;;;;;;37.00;32.25;;;;;12.22;71.52;102414.19;6341428;22;45231;-84
2022/01/01 04:25:47;;;;;;;;;34.50;28.50;;;;;12.18;71.23;102404.53;6313149;22;45700;-82
2022/01/01 04:28:13;;;;;;;;;35.00;32.00;;;;;12.16;71.55;102407.22;6341076;22;46053;-81
2022/01/01 04:30:38;;;;;;;;;40.50;33.00;;;;;12.18;71.22;102415.09;6340888;22;45397;-83
2022/01/01 04:33:04;;;;;;;;;36.25;31.75;;;;;12.14;71.15;102412.53;6341640;22;45327;-83
2022/01/01 04:35:29;;;;;;;;;35.50;32.00;;;;;12.13;71.34;102407.25;6341029;22;45477;-82
2022/01/01 04:37:55;;;;;;;;;37.25;32.00;;;;;12.13;71.21;102409.88;6341275;22;45242;-82
2022/01/01 04:40:20;;;;;;;;;36.50;32.00;;;;;12.08;71.27;102412.53;6340870;22;45695;-84
2022/01/01 04:42:46;;;;;;;;;36.25;32.75;;;;;12.08;71.19;102409.91;6341046;22;45160;-84
2022/01/01 04:45:12;;;;;;;;;37.50;32.25;;;;;12.06;71.30;102410.81;6341030;22;45352;-83
2022/01/01 04:47:37;;;;;;;;;34.75;30.50;;;;;12.03;71.11;102404.69;6341320;22;46552;-83
2022/01/01 04:50:04;;;;;;;;;42.50;33.75;;;;;12.01;71.12;102408.25;6341054;22;45171;-83
2022/01/01 04:52:30;;;;;;;;;42.75;35.00;;;;;12.02;71.26;102412.63;6341337;22;45244;-86
2022/01/01 04:54:55;;;;;;;;;40.00;34.75;;;;;12.00;71.14;102415.28;6341379;22;45187;-87
2022/01/01 04:57:26;;;;;;;;;39.50;32.25;;;;;11.98;71.18;102405.63;6339941;22;45366;-88
2022/01/01 04:59:51;;;;;;;;;37.50;32.00;;;;;11.97;71.66;102399.53;6341029;22;45676;-88
2022/01/01 05:02:16;;;;;;;;;33.00;28.00;;;;;11.98;71.93;102408.28;6313145;22;45721;-86
2022/01/01 05:04:42;;;;;;;;;32.00;29.75;;;;;11.98;71.76;102408.28;6341095;22;45098;-86
2022/01/01 05:07:07;;;;;;;;;30.00;28.00;;;;;12.01;71.93;102410.88;6340949;22;45364;-86
2022/01/01 05:09:33;;;;;;;;;28.25;28.25;;;;;12.02;71.98;102410.88;6341420;22;45271;-85
2022/01/01 05:11:58;;;;;;;;;26.75;25.25;;;;;12.03;72.09;102409.09;6312686;22;45200;-86
2022/01/01 05:14:24;;;;;;;;;33.25;29.50;;;;;12.03;72.17;102409.97;6313221;22;45879;-86
2022/01/01 05:16:51;;;;;;;;;35.00;28.00;;;;;12.07;72.03;102416.09;6340931;22;46270;-85
2022/01/01 05:19:17;;;;;;;;;36.50;31.00;;;;;12.09;72.36;102411.66;6341139;22;45388;-83
2022/01/01 05:21:42;;;;;;;;;34.00;29.75;;;;;12.11;72.10;102415.16;6340232;22;45649;-82
2022/01/01 05:24:08;;;;;;;;;38.75;32.75;;;;;12.14;72.22;102403.72;6341157;22;45478;-84
2022/01/01 05:26:33;;;;;;;;;31.25;28.75;;;;;12.17;71.93;102408.97;6341428;22;45359;-84
2022/01/01 05:28:59;;;;;;;;;33.50;30.00;;;;;12.18;72.21;102408.06;6340560;22;45209;-83
2022/01/01 05:31:25;;;;;;;;;37.50;30.75;;;;;12.20;72.01;102408.06;6341205;22;45148;-84
2022/01/01 05:33:51;;;;;;;;;31.75;29.00;;;;;12.22;71.73;102409.75;6341177;22;45385;-84
2022/01/01 05:36:17;;;;;;;;;32.75;30.00;;;;;12.25;71.91;102417.63;6340924;22;46660;-82
2022/01/01 05:38:44;;;;;;;;;37.25;32.25;;;;;12.25;72.18;102408.84;6312843;22;45227;-84
2022/01/01 05:41:10;;;;;;;;;33.50;28.25;;;;;12.25;72.10;102403.56;6312547;22;45412;-83
2022/01/01 05:43:36;;;;;;;;;32.25;29.00;;;;;12.23;71.95;102400.09;6341036;22;45302;-85
2022/01/01 05:46:03;;;;;;;;;30.25;27.00;;;;;12.26;72.12;102400.06;6340686;22;45498;-84
2022/01/01 05:48:29;;;;;;;;;32.50;28.00;;;;;12.27;71.83;102399.19;6312327;22;45183;-86
2022/01/01 05:50:54;;;;;;;;;28.25;26.50;;;;;12.27;72.23;102399.19;6340638;22;45396;-85
2022/01/01 05:53:20;;;;;;;;;34.50;27.00;;;;;12.25;71.99;102382.47;6312150;22;46013;-82
2022/01/01 05:55:47;;;;;;;;;25.25;25.25;;;;;12.27;71.99;102396.53;6340634;22;45335;-83
2022/01/01 05:58:13;;;;;;;;;29.25;27.25;;;;;12.27;71.85;102396.53;6311853;22;45751;-83
2022/01/01 06:00:39;;;;;;;;;28.50;24.50;;;;;12.27;71.88;102391.28;6341117;22;45117;-84
2022/01/01 06:03:04;;;;;;;;;27.50;24.25;;;;;12.27;71.85;102392.13;6340811;22;45398;-83
2022/01/01 06:05:30;;;;;;;;;28.50;25.50;;;;;12.26;71.78;102386.88;6340592;22;45375;-83
2022/01/01 06:07:58;;;;;;;;;27.75;25.50;;;;;12.25;71.75;102387.75;6340280;22;45388;-81
2022/01/01 06:10:25;;;;;;;;;28.25;27.00;;;;;12.24;71.91;102381.63;6313337;22;45207;-81
2022/01/01 06:12:52;;;;;;;;;26.50;24.00;;;;;12.22;71.85;102386.03;6340470;22;45292;-83
2022/01/01 06:15:18;;;;;;;;;29.25;26.00;;;;;12.22;72.03;102385.19;6340743;22;45567;-82
2022/01/01 06:17:43;;;;;;;;;25.75;25.25;;;;;12.21;71.66;102391.34;6340811;22;45310;-83
2022/01/01 06:20:09;;;;;;;;;28.75;25.00;;;;;12.21;71.88;102384.31;6340694;22;45159;-85
2022/01/01 06:22:35;;;;;;;;;24.50;22.50;;;;;12.22;71.72;102387.81;6339823;22;45366;-85
2022/01/01 06:25:00;;;;;;;;;23.75;20.50;;;;;12.23;71.93;102395.69;6340485;22;45385;-85
2022/01/01 06:27:25;;;;;;;;;24.00;22.00;;;;;12.20;71.86;102389.63;6339734;22;45259;-86
2022/01/01 06:29:51;;;;;;;;;24.75;22.75;;;;;12.21;71.81;102396.59;6340589;22;45360;-87
2022/01/01 06:32:16;;;;;;;;;23.75;21.25;;;;;12.20;71.49;102395.72;6311742;22;46126;-85
2022/01/01 06:34:42;;;;;;;;;30.00;25.00;;;;;12.17;72.11;102389.66;6340627;22;46587;-85
2022/01/01 06:37:07;;;;;;;;;27.50;24.00;;;;;12.14;71.69;102383.53;6340394;22;45318;-86
2022/01/01 06:39:32;;;;;;;;;24.00;22.25;;;;;12.16;71.84;102388.75;6338914;22;45265;-84
2022/01/01 06:41:58;;;;;;;;;22.00;21.50;;;;;12.16;71.47;102383.50;6340083;22;45360;-86
2022/01/01 06:44:23;;;;;;;;;29.25;24.50;;;;;12.14;71.63;102386.16;6340443;22;46060;-84
2022/01/01 06:46:48;;;;;;;;;20.50;20.00;;;;;12.14;71.59;102393.19;6340549;22;45178;-83
2022/01/01 06:49:14;;;;;;;;;24.25;22.75;;;;;12.12;71.56;102387.03;6340540;22;45137;-83
2022/01/01 06:51:40;;;;;;;;;26.00;24.00;;;;;12.13;71.40;102380.88;6340207;22;45243;-83
2022/01/01 06:54:05;;;;;;;;;20.50;19.00;;;;;12.12;71.50;102385.25;6340506;22;45231;-83
2022/01/01 06:56:31;;;;;;;;;21.00;18.25;;;;;12.10;71.13;102384.41;6340480;22;45176;-84
2022/01/01 06:58:57;;;;;;;;;25.50;19.25;;;;;12.09;71.31;102381.78;6340072;22;45172;-81
2022/01/01 07:01:22;;;;;;;;;22.50;19.75;;;;;12.07;70.83;102378.31;6340475;22;45369;-81
2022/01/01 07:03:47;;;;;;;;;21.25;17.25;;;;;12.07;71.10;102378.31;6339797;22;46211;-81
2022/01/01 07:06:13;;;;;;;;;22.50;18.50;;;;;12.06;71.10;102380.06;6340096;22;45166;-82
2022/01/01 07:08:38;;;;;;;;;20.50;19.50;;;;;12.01;71.25;102371.34;6340092;22;45231;-82
2022/01/01 07:11:04;;;;;;;;;23.50;20.50;;;;;12.01;70.99;102371.34;6340230;22;45413;-83
2022/01/01 07:13:29;;;;;;;;;20.50;18.25;;;;;12.00;71.17;102380.16;6339931;22;45380;-91
2022/01/01 07:15:55;;;;;;;;;23.75;21.00;;;;;11.98;70.96;102376.66;6340352;22;45295;-91
2022/01/01 07:18:20;;;;;;;;;23.00;17.75;;;;;11.95;71.01;102381.97;6340418;22;45334;-90
2022/01/01 07:20:45;;;;;;;;;18.50;18.00;;;;;11.93;71.04;102388.13;6340536;22;45270;-87
2022/01/01 07:23:11;;;;;;;;;18.25;18.25;;;;;11.91;71.08;102378.50;6341563;22;45319;-88
2022/01/01 07:25:36;;;;;;;;;22.25;20.00;;;;;11.93;70.92;102382.84;6341843;22;45353;-88
2022/01/01 07:28:03;;;;;;;;;21.25;18.00;;;;;11.90;71.14;102380.25;6340972;22;45332;-88
2022/01/01 07:30:28;;;;;;;;;18.25;16.00;;;;;11.89;71.21;102382.91;6313232;22;47424;-87
2022/01/01 07:32:54;;;;;;;;;22.25;19.50;;;;;11.86;71.07;102385.56;6341713;22;45373;-87
2022/01/01 07:35:20;;;;;;;;;21.50;18.50;;;;;11.86;71.07;102381.19;6313335;22;45637;-87
2022/01/01 07:37:46;;;;;;;;;23.25;22.00;;;;;11.82;71.06;102384.75;6341515;22;45373;-87
2022/01/01 07:40:13;;;;;;;;;23.00;19.00;;;;;11.84;70.99;102385.63;6341350;22;45404;-87
2022/01/01 07:42:39;;;;;;;;;21.75;21.50;;;;;11.80;70.96;102386.53;6341359;22;45273;-85
2022/01/01 07:45:08;;;;;;;;;23.25;18.50;;;;;11.80;71.18;102391.81;6341687;22;45628;-84
2022/01/01 07:47:33;;;;;;;;;22.75;19.25;;;;;11.79;71.04;102384.78;6313238;22;45259;-86
2022/01/01 07:49:59;;;;;;;;;20.75;19.25;;;;;11.74;71.08;102384.84;6313012;22;45715;-87
2022/01/01 07:52:25;;;;;;;;;25.00;22.25;;;;;11.73;70.94;102379.59;6313090;22;48391;-84
2022/01/01 07:54:50;;;;;;;;;14.75;11.00;;;;;11.70;70.79;102386.63;6340832;22;45286;-82
2022/01/01 07:57:16;;;;;;;;;23.75;18.50;;;;;11.70;71.04;102388.41;6341273;22;45144;-85
2022/01/01 07:59:41;;;;;;;;;23.00;17.50;;;;;11.68;71.18;102388.41;6341503;22;45359;-86
2022/01/01 08:02:08;;;;;;;;;21.00;19.50;;;;;11.66;70.91;102384.94;6341406;22;46418;-86
2022/01/01 08:04:33;;;;;;;;;22.00;21.00;;;;;11.65;70.77;102399.00;6340883;22;45180;-90
2022/01/01 08:06:58;;;;;;;;;21.50;20.25;;;;;11.62;71.17;102393.75;6341697;22;45202;-87
2022/01/01 08:09:24;;;;;;;;;24.25;21.25;;;;;11.59;71.20;102396.41;6341535;22;45463;-85
2022/01/01 08:11:50;;;;;;;;;27.00;22.00;;;;;11.60;71.08;102398.19;6340501;22;46445;-82
2022/01/01 08:14:16;;;;;;;;;24.50;22.25;;;;;11.59;71.17;102396.41;6341124;22;45431;-84
2022/01/01 08:17:02;;;;;;;;;22.00;19.25;;;;;11.59;71.10;102396.41;6341760;22;45434;-85
2022/01/01 08:19:28;;;;;;;;;23.25;21.25;;;;;11.57;70.97;102391.19;6341276;22;45399;-84
2022/01/01 08:21:54;;;;;;;;;24.50;20.75;;;;;11.53;70.85;102388.59;6340748;22;45334;-88
2022/01/01 08:24:21;;;;;;;;;25.25;21.75;;;;;11.54;70.94;102390.31;6313237;22;45635;-88
2022/01/01 08:26:46;;;;;;;;;26.25;24.00;;;;;11.51;71.20;102378.06;6313384;22;45179;-91
2022/01/01 08:29:13;;;;;;;;;25.50;22.50;;;;;11.52;70.81;102384.22;6313295;22;45736;-91
2022/01/01 08:31:38;;;;;;;;;24.25;20.25;;;;;11.48;71.07;102375.47;6311880;22;48495;-83
2022/01/01 08:34:04;;;;;;;;;21.00;21.00;;;;;11.48;71.06;102378.13;6341449;22;45436;-83
2022/01/01 08:36:29;;;;;;;;;23.50;20.00;;;;;11.46;71.01;102380.75;6341281;22;45231;-84
2022/01/01 08:38:55;;;;;;;;;25.00;22.75;;;;;11.46;71.09;102383.38;6341131;22;45271;-88
2022/01/01 08:41:20;;;;;;;;;25.25;22.75;;;;;11.47;70.94;102381.63;6312627;22;48160;-87
2022/01/01 08:43:45;;;;;;;;;24.25;20.50;;;;;11.44;70.75;102386.91;6340148;22;45591;-88
2022/01/01 08:46:11;;;;;;;;;19.50;19.50;;;;;11.44;70.96;102381.66;6339807;22;45388;-85
2022/01/01 08:48:37;;;;;;;;;23.00;20.50;;;;;11.42;70.90;102381.66;6311297;22;46005;-85
2022/01/01 08:51:19;;;;;;;;;23.25;21.50;;;;;11.40;70.69;102378.19;6339537;22;46247;-85
2022/01/01 08:53:46;;;;;;;;;23.75;23.25;;;;;11.42;71.18;102383.44;6339572;22;45706;-85
2022/01/01 08:56:11;;;;;;;;;27.50;23.00;;;;;11.42;70.98;102379.03;6340127;22;45313;-85
2022/01/01 08:58:37;;;;;;;;;25.25;22.75;;;;;11.38;71.22;102369.44;6339360;22;45281;-85
2022/01/01 09:01:03;;;;;;;;;24.75;23.50;;;;;11.40;71.06;102372.03;6339189;22;45354;-85
2022/01/01 09:03:30;;;;;;;;;23.25;21.25;;;;;11.39;71.11;102371.16;6340056;22;45792;-86
2022/01/01 09:05:55;;;;;;;;;21.25;19.00;;;;;11.41;71.27;102379.91;6340129;22;45155;-85
2022/01/01 09:08:21;;;;;;;;;22.75;21.25;;;;;11.38;71.16;102374.69;6311721;22;46737;-85
2022/01/01 09:10:46;;;;;;;;;22.00;20.75;;;;;11.41;71.39;102377.28;6339287;22;46109;-85
2022/01/01 09:13:11;;;;;;;;;22.25;18.75;;;;;11.40;71.35;102383.44;6339595;22;45224;-85
2022/01/01 09:15:37;;;;;;;;;23.50;23.25;;;;;11.42;70.97;102381.66;6311305;22;45625;-85
2022/01/01 09:18:02;;;;;;;;;20.25;16.75;;;;;11.41;71.50;102379.91;6337232;22;46256;-85
2022/01/01 09:20:28;;;;;;;;;20.25;18.75;;;;;11.43;71.34;102375.50;6338270;22;45305;-85
2022/01/01 09:22:53;;;;;;;;;20.25;19.00;;;;;11.45;71.65;102368.47;6339094;22;45248;-85
2022/01/01 09:25:18;;;;;;;;;22.00;18.00;;;;;11.48;71.72;102360.53;6338845;22;45589;-87
2022/01/01 09:27:44;;;;;;;;;17.00;16.50;;;;;11.49;71.81;102358.78;6339674;22;45464;-83
2022/01/01 09:30:10;;;;;;;;;24.00;18.00;;;;;11.52;71.69;102360.50;6340099;22;46300;-83
2022/01/01 09:32:36;;;;;;;;;20.50;18.75;;;;;11.56;71.84;102359.56;6340994;22;45294;-82
2022/01/01 09:35:02;;;;;;;;;23.00;20.50;;;;;11.58;71.48;102360.47;6339477;22;45359;-85
2022/01/01 09:37:29;;;;;;;;;22.00;20.00;;;;;11.58;71.69;102355.19;6340848;22;45361;-81
2022/01/01 09:39:56;;;;;;;;;19.75;17.50;;;;;11.62;71.73;102354.25;6339858;22;45598;-82
2022/01/01 09:42:22;;;;;;;;;15.25;15.25;;;;;11.62;72.00;102350.75;6340830;22;45247;-81
2022/01/01 09:44:48;;;;;;;;;17.75;17.00;;;;;11.64;71.79;102349.84;6341225;22;45090;-82
2022/01/01 09:47:13;;;;;;;;;22.00;21.00;;;;;11.67;72.05;102335.75;6339690;22;45208;-83
2022/01/01 09:49:40;;;;;;;;;20.75;20.25;;;;;11.72;71.89;102330.44;6339747;22;45493;-83
2022/01/01 09:52:06;;;;;;;;;19.50;17.75;;;;;11.76;71.92;102332.13;6340611;22;45313;-84
2022/01/01 09:54:31;;;;;;;;;19.00;18.00;;;;;11.78;71.29;102346.16;6311364;22;45364;-84
2022/01/01 09:56:57;;;;;;;;;19.25;17.50;;;;;11.82;71.83;102353.16;6339056;22;45449;-83
2022/01/01 09:59:22;;;;;;;;;24.50;20.00;;;;;11.86;71.67;102357.47;6340378;22;45358;-82
2022/01/01 10:01:47;;;;;;;;;22.50;20.50;;;;;11.85;71.52;102342.59;6340089;22;45381;-84
2022/01/01 10:04:14;;;;;;;;;19.00;16.75;;;;;11.88;71.51;102336.38;6310831;22;45334;-84
2022/01/01 10:06:41;;;;;;;;;18.00;16.75;;;;;11.90;71.36;102330.19;6340680;22;45168;-85
2022/01/01 10:09:09;;;;;;;;;19.50;18.25;;;;;11.92;71.41;102327.56;6311199;22;46933;-85
2022/01/01 10:11:35;;;;;;;;;28.75;22.50;;;;;11.96;71.51;102331.00;6339239;22;45948;-83
2022/01/01 10:14:06;;;;;;;;;20.75;20.50;;;;;11.99;71.40;102333.59;6340581;22;45290;-85
2022/01/01 10:16:31;;;;;;;;;20.25;18.50;;;;;12.00;71.20;102328.31;6311405;22;45978;-85
2022/01/01 10:18:57;;;;;;;;;22.50;20.00;;;;;12.02;71.77;102333.56;6338591;22;46174;-85
2022/01/01 10:21:27;;;;;;;;;18.75;18.50;;;;;12.03;71.23;102335.31;6339210;22;45266;-84
2022/01/01 10:23:56;;;;;;;;;24.50;21.25;;;;;12.02;71.17;102334.47;6340525;22;45232;-84
2022/01/01 10:29:09;;;;;;;;;17.25;17.25;;;;;12.04;71.39;102323.88;6340048;22;45179;-87
2022/01/01 10:31:36;;;;;;;;;22.50;19.75;;;;;12.08;71.11;102322.94;6339574;22;45449;-86
2022/01/01 10:34:10;;;;;;;;;21.25;19.75;;;;;12.09;71.09;102319.41;6340147;22;45278;-85
2022/01/01 10:36:35;;;;;;;;;24.25;21.25;;;;;12.07;71.49;102329.13;6311740;22;45980;-86
2022/01/01 10:39:18;;;;;;;;;21.75;20.00;;;;;12.10;71.31;102330.84;6339883;22;45354;-86
2022/01/01 10:41:50;;;;;;;;;23.25;20.75;;;;;12.11;71.39;102327.28;6340141;22;45072;-86
2022/01/01 10:44:20;;;;;;;;;21.25;18.00;;;;;12.14;71.29;102332.56;6340471;22;45135;-86
2022/01/01 10:46:45;;;;;;;;;24.00;20.50;;;;;12.15;71.26;102318.47;6339233;22;45416;-86
2022/01/01 10:50:15;;;;;;;;;22.25;19.00;;;;;12.20;71.43;102321.06;6335055;22;46008;-85
2022/01/01 10:52:29;;;;;;;;;20.50;18.75;;;;;12.20;71.45;102326.34;6315576;22;45373;-85
2022/01/01 10:54:58;;;;;;;;;20.00;19.00;;;;;12.24;71.47;102326.28;6336675;22;45312;-86
2022/01/01 10:57:28;;;;;;;;;18.75;17.00;;;;;12.27;72.00;102317.44;6338313;22;45455;-86
2022/01/01 11:00:17;;;;;;;;;20.75;19.00;;;;;12.29;71.60;102318.28;6341131;22;46060;-86
2022/01/01 11:02:49;;;;;;;;;20.75;18.75;;;;;12.32;71.87;102315.59;6339496;22;46156;-86
2022/01/01 11:05:15;;;;;;;;;17.50;17.25;;;;;12.32;71.69;102320.03;6336581;22;45227;-87
2022/01/01 11:07:51;;;;;;;;;16.25;16.25;;;;;12.37;71.59;102324.31;6309597;22;45861;-86
2022/01/01 11:10:18;;;;;;;;;20.75;17.50;;;;;12.43;71.63;102322.47;6312483;22;47849;-87
2022/01/01 11:12:43;;;;;;;;;16.75;16.50;;;;;12.48;71.81;102328.56;6341444;22;45153;-85
2022/01/01 11:15:10;;;;;;;;;18.50;18.00;;;;;12.50;71.84;102316.22;6341743;22;45157;-85